Time;durP1;ratioP1;P1;durP2;ratioP2;P2;SDS_P1;SDS_P2;PMS_P1;PMS_P2;Temp;Humidity;BMP_temperature;BMP_pressure;BME280_temperature;BME280_humidity;BME280_pressure;Samples;Min_cycle;Max_cycle;Signal;HPM_P1;HPM_P2
2023/11/08 00:00:15;;;;;;;;;;;;;;;7.65;100.00;100332.34;5032816;28;19925;-77
2023/11/08 00:02:42;;;;;;;;;;;;;;;7.66;100.00;100340.16;5028507;28;19948;-81
2023/11/08 00:05:09;;;;;;;;;;;;;;;7.57;100.00;100331.00;5008463;28;19926;-79
2023/11/08 00:07:36;;;;;;;;;;;;;;;7.61;100.00;100336.94;5028603;28;19981;-77
2023/11/08 00:10:03;;;;;;;;;;;;;;;7.67;100.00;100336.59;5032201;28;20043;-78
2023/11/08 00:12:30;;;;;;;;;;;;;;;7.68;100.00;100334.84;5013641;28;19983;-81
2023/11/08 00:14:58;;;;;;;;;;;;;;;7.72;100.00;100339.00;5045876;28;20028;-75
2023/11/08 00:17:25;;;;;;;;;;;;;;;7.71;100.00;100332.91;5032922;28;20194;-74
2023/11/08 00:19:54;;;;;;;;;;;;;;;7.67;100.00;100331.38;5014933;28;19969;-83
2023/11/08 00:22:22;;;;;;;;;;;;;;;7.66;100.00;100336.69;5030840;28;20355;-79
2023/11/08 00:24:49;;;;;;;;;;;;;;;7.67;100.00;100326.13;5029639;28;19972;-79
2023/11/08 00:27:16;;;;;;;;;;;;;;;7.69;100.00;100326.88;5030629;28;19992;-79
2023/11/08 00:29:43;;;;;;;;;;;;;;;7.68;100.00;100333.06;5030253;28;19933;-79
2023/11/08 00:32:10;;;;;;;;;;;;;;;7.67;100.00;100338.38;5031866;28;19971;-78
2023/11/08 00:34:38;;;;;;;;;;;;;;;7.65;100.00;100334.97;5045522;28;19933;-76
2023/11/08 00:37:05;;;;;;;;;;;;;;;7.61;100.00;100334.31;5028862;28;19964;-75
2023/11/08 00:39:32;;;;;;;;;;;;;;;7.59;100.00;100329.13;5027423;28;19925;-74
2023/11/08 00:42:00;;;;;;;;;;;;;;;7.59;100.00;100328.28;4997458;28;20328;-80
2023/11/08 00:44:27;;;;;;;;;;;;;;;7.59;100.00;100329.13;5029857;28;20027;-82
2023/11/08 00:46:54;;;;;;;;;;;;;;;7.54;100.00;100327.69;5024955;28;20419;-78
2023/11/08 00:49:21;;;;;;;;;;;;;;;7.53;100.00;100339.94;5030913;28;20019;-78
2023/11/08 00:51:48;;;;;;;;;;;;;;;7.52;100.00;100335.63;4995958;28;19960;-72
2023/11/08 00:54:15;;;;;;;;;;;;;;;7.53;100.00;100336.47;5025356;28;19933;-72
2023/11/08 00:56:42;;;;;;;;;;;;;;;7.54;100.00;100333.75;5027098;28;21079;-72
2023/11/08 00:59:09;;;;;;;;;;;;;;;7.54;100.00;100331.16;5035657;28;20337;-72
2023/11/08 01:01:36;;;;;;;;;;;;;;;7.57;100.00;100327.53;5035702;28;19983;-74
2023/11/08 01:04:06;;;;;;;;;;;;;;;7.57;100.00;100328.38;5011118;28;20359;-75
2023/11/08 01:06:34;;;;;;;;;;;;;;;7.58;100.00;100332.69;5016429;28;20017;-75
2023/11/08 01:09:01;;;;;;;;;;;;;;;7.63;100.00;100327.22;5028481;28;19929;-73
2023/11/08 01:11:28;;;;;;;;;;;;;;;7.63;100.00;100324.59;5028700;28;20051;-75
2023/11/08 01:13:55;;;;;;;;;;;;;;;7.61;100.00;100326.47;5028163;28;19933;-75
2023/11/08 01:16:22;;;;;;;;;;;;;;;7.64;100.00;100334.13;5045095;28;20028;-74
2023/11/08 01:18:49;;;;;;;;;;;;;;;7.64;100.00;100328.91;5029683;28;20404;-74
2023/11/08 01:21:16;;;;;;;;;;;;;;;7.63;100.00;100327.22;5027977;28;19960;-75
2023/11/08 01:23:43;;;;;;;;;;;;;;;7.62;100.00;100328.16;5033477;28;20016;-78
2023/11/08 01:26:11;;;;;;;;;;;;;;;7.60;100.00;100325.59;5010121;28;20527;-77
2023/11/08 01:28:38;;;;;;;;;;;;;;;7.61;100.00;100327.31;5035390;28;19929;-75
2023/11/08 01:31:05;;;;;;;;;;;;;;;7.55;100.00;100322.34;5046572;28;19925;-73
2023/11/08 01:33:32;;;;;;;;;;;;;;;7.56;100.00;100323.19;5030499;28;19933;-79
2023/11/08 01:36:00;;;;;;;;;;;;;;;7.50;100.00;100318.28;5013320;28;19975;-81
2023/11/08 01:38:27;;;;;;;;;;;;;;;7.47;100.00;100314.03;5029556;28;19971;-79
2023/11/08 01:40:54;;;;;;;;;;;;;;;7.46;100.00;100314.97;5028237;28;19951;-77
2023/11/08 01:43:33;;;;;;;;;;;;;;;7.42;100.00;100321.28;5015574;28;19929;-79
2023/11/08 01:46:05;;;;;;;;;;;;;;;7.42;100.00;100318.66;5025841;28;19925;-80
2023/11/08 01:48:32;;;;;;;;;;;;;;;7.36;100.00;100319.84;5029473;28;19991;-78
2023/11/08 01:51:00;;;;;;;;;;;;;;;7.34;100.00;100315.63;5012040;28;19979;-79
2023/11/08 01:53:28;;;;;;;;;;;;;;;7.30;100.00;100314.91;5040291;28;19987;-74
2023/11/08 01:55:55;;;;;;;;;;;;;;;7.27;100.00;100314.22;5011986;28;19925;-74
2023/11/08 01:58:22;;;;;;;;;;;;;;;7.26;100.00;100320.38;5009694;28;19964;-74
2023/11/08 02:00:50;;;;;;;;;;;;;;;7.22;100.00;100317.06;5011749;28;20598;-75
2023/11/08 02:03:17;;;;;;;;;;;;;;;7.17;100.00;100318.22;5027387;28;20107;-72
2023/11/08 02:05:44;;;;;;;;;;;;;;;7.16;100.00;100313.88;4984366;28;20481;-75
2023/11/08 02:08:12;;;;;;;;;;;;;;;7.13;100.00;100311.44;5005035;28;19924;-76
2023/11/08 02:10:39;;;;;;;;;;;;;;;7.15;100.00;100307.81;5027324;28;20379;-66
2023/11/08 02:13:07;;;;;;;;;;;;;;;7.10;100.00;100310.66;5024908;28;19979;-72
2023/11/08 02:15:37;;;;;;;;;;;;;;;7.09;100.00;100305.50;5024506;28;20345;-74
2023/11/08 02:18:05;;;;;;;;;;;;;;;7.06;100.00;100297.78;4991684;28;19948;-77
2023/11/08 02:20:32;;;;;;;;;;;;;;;7.06;100.00;100296.03;5009451;28;19961;-76
2023/11/08 02:22:59;;;;;;;;;;;;;;;7.04;100.00;100299.66;5028393;28;19928;-75
2023/11/08 02:25:27;;;;;;;;;;;;;;;6.99;100.00;100306.88;5006988;28;19969;-72
2023/11/08 02:27:55;;;;;;;;;;;;;;;6.98;100.00;100294.69;5026805;28;19925;-76
2023/11/08 02:30:23;;;;;;;;;;;;;;;6.97;100.00;100300.88;5024230;28;19970;-71
2023/11/08 02:32:50;;;;;;;;;;;;;;;6.94;100.00;100312.34;5025930;28;20012;-76
2023/11/08 02:35:18;;;;;;;;;;;;;;;6.93;100.00;100294.94;5009968;28;19936;-74
2023/11/08 02:37:48;;;;;;;;;;;;;;;6.91;100.00;100299.41;5001974;28;19926;-67
2023/11/08 02:40:15;;;;;;;;;;;;;;;6.92;100.00;100306.31;5025266;28;20614;-76
2023/11/08 02:42:43;;;;;;;;;;;;;;;6.91;100.00;100298.56;5008518;28;19965;-69
2023/11/08 02:45:10;;;;;;;;;;;;;;;6.91;100.00;100301.19;5024899;28;19987;-71
2023/11/08 02:47:37;;;;;;;;;;;;;;;6.89;100.00;100301.25;5007690;28;20026;-65
2023/11/08 02:50:05;;;;;;;;;;;;;;;6.86;100.00;100304.03;5005906;28;19928;-73
2023/11/08 02:52:32;;;;;;;;;;;;;;;6.85;100.00;100300.56;5025312;28;19925;-73
2023/11/08 02:54:59;;;;;;;;;;;;;;;6.86;100.00;100293.56;5025013;28;19935;-72
2023/11/08 02:57:27;;;;;;;;;;;;;;;6.84;100.00;100292.75;5024313;28;19933;-72
2023/11/08 02:59:54;;;;;;;;;;;;;;;6.83;100.00;100296.31;5006018;28;19925;-71
2023/11/08 03:02:22;;;;;;;;;;;;;;;6.82;100.00;100299.84;5026037;28;20028;-70
2023/11/08 03:04:49;;;;;;;;;;;;;;;6.80;100.00;100289.47;5022826;28;19975;-64
2023/11/08 03:07:16;;;;;;;;;;;;;;;6.77;100.00;100294.00;5025309;28;20446;-71
2023/11/08 03:09:43;;;;;;;;;;;;;;;6.75;100.00;100295.81;5028322;28;19925;-68
2023/11/08 03:12:10;;;;;;;;;;;;;;;6.73;100.00;100293.28;5022916;28;20030;-69
2023/11/08 03:14:38;;;;;;;;;;;;;;;6.72;100.00;100293.38;5026412;28;19937;-66
2023/11/08 03:17:05;;;;;;;;;;;;;;;6.71;100.00;100289.94;5027539;28;19936;-71
2023/11/08 03:19:32;;;;;;;;;;;;;;;6.67;100.00;100284.91;5041041;28;19929;-72
2023/11/08 03:22:00;;;;;;;;;;;;;;;6.66;100.00;100291.03;5024501;28;19933;-64
2023/11/08 03:24:28;;;;;;;;;;;;;;;6.63;100.00;100294.66;5026392;28;20337;-74
2023/11/08 03:26:55;;;;;;;;;;;;;;;6.62;100.00;100284.25;5025499;28;20473;-73
2023/11/08 03:29:22;;;;;;;;;;;;;;;6.60;100.00;100290.41;5011558;28;19929;-71
2023/11/08 03:31:49;;;;;;;;;;;;;;;6.60;100.00;100294.81;5027644;28;19924;-72
2023/11/08 03:34:16;;;;;;;;;;;;;;;6.59;100.00;100298.34;5026558;28;19928;-70
2023/11/08 03:36:44;;;;;;;;;;;;;;;6.58;100.00;100300.13;5025063;28;20023;-71
2023/11/08 03:39:11;;;;;;;;;;;;;;;6.56;100.00;100286.25;5026153;28;20399;-69
2023/11/08 03:41:38;;;;;;;;;;;;;;;6.56;100.00;100291.47;5026354;28;21503;-69
2023/11/08 03:44:05;;;;;;;;;;;;;;;6.54;100.00;100285.50;5027560;28;19925;-71
2023/11/08 03:46:33;;;;;;;;;;;;;;;6.55;100.00;100281.09;5011654;28;19925;-73
2023/11/08 03:49:00;;;;;;;;;;;;;;;6.56;100.00;100294.09;5029235;28;19956;-73
2023/11/08 03:51:27;;;;;;;;;;;;;;;6.56;100.00;100299.31;5028781;28;19925;-71
2023/11/08 03:53:54;;;;;;;;;;;;;;;6.57;100.00;100287.97;5009326;28;19937;-72
2023/11/08 03:56:21;;;;;;;;;;;;;;;6.58;100.00;100297.50;5030672;28;20067;-76
2023/11/08 03:58:49;;;;;;;;;;;;;;;6.57;100.00;100300.16;5045752;28;20095;-71
2023/11/08 04:01:16;;;;;;;;;;;;;;;6.57;100.00;100298.44;5029641;28;20419;-76
2023/11/08 04:03:43;;;;;;;;;;;;;;;6.56;100.00;100296.72;5028828;28;20742;-72
2023/11/08 04:06:11;;;;;;;;;;;;;;;6.55;100.00;100292.41;5030523;28;19932;-68
2023/11/08 04:08:38;;;;;;;;;;;;;;;6.57;100.00;100303.66;5029765;28;20023;-73
2023/11/08 04:11:05;;;;;;;;;;;;;;;6.56;100.00;100291.47;5027274;28;19929;-71
2023/11/08 04:13:32;;;;;;;;;;;;;;;6.56;100.00;100295.88;5026469;28;20291;-71
2023/11/08 04:15:59;;;;;;;;;;;;;;;6.54;100.00;100290.72;5031306;28;20387;-75
2023/11/08 04:18:27;;;;;;;;;;;;;;;6.55;100.00;100302.03;5027755;28;19979;-73
2023/11/08 04:20:54;;;;;;;;;;;;;;;6.57;100.00;100297.56;5028444;28;19971;-72
2023/11/08 04:23:21;;;;;;;;;;;;;;;6.62;100.00;100298.22;5029651;28;20459;-72
2023/11/08 04:25:49;;;;;;;;;;;;;;;6.67;100.00;100288.38;5031636;28;19979;-72
2023/11/08 04:28:20;;;;;;;;;;;;;;;6.72;100.00;100303.84;5028372;28;19925;-72
2023/11/08 04:30:47;;;;;;;;;;;;;;;6.74;100.00;100297.59;5027821;28;20384;-74
2023/11/08 04:33:14;;;;;;;;;;;;;;;6.80;100.00;100293.88;5028218;28;19956;-70
2023/11/08 04:35:41;;;;;;;;;;;;;;;6.80;100.00;100294.72;5028497;28;20056;-73
2023/11/08 04:38:08;;;;;;;;;;;;;;;6.85;100.00;100294.47;5010790;28;20008;-71
2023/11/08 04:40:35;;;;;;;;;;;;;;;6.91;100.00;100291.56;5027946;28;19968;-69
2023/11/08 04:43:02;;;;;;;;;;;;;;;6.88;100.00;100296.94;5008635;28;20024;-72
2023/11/08 04:45:29;;;;;;;;;;;;;;;6.90;100.00;100295.09;5010627;28;19952;-72
2023/11/08 04:47:57;;;;;;;;;;;;;;;6.96;100.00;100302.63;5026541;28;19964;-74
2023/11/08 04:50:24;;;;;;;;;;;;;;;6.97;100.00;100293.84;5029761;28;19929;-71
2023/11/08 04:52:51;;;;;;;;;;;;;;;7.01;100.00;100294.56;5027475;28;19932;-74
2023/11/08 04:55:20;;;;;;;;;;;;;;;6.97;100.00;100291.25;5027186;28;19929;-74
2023/11/08 04:57:47;;;;;;;;;;;;;;;6.98;100.00;100308.66;5044039;28;19925;-70
2023/11/08 05:00:14;;;;;;;;;;;;;;;7.03;100.00;100290.13;5026541;28;19979;-67
2023/11/08 05:02:42;;;;;;;;;;;;;;;7.08;100.00;100295.97;5030510;28;19925;-72
2023/11/08 05:05:09;;;;;;;;;;;;;;;7.07;100.00;100297.75;5033493;28;19934;-74
2023/11/08 05:07:36;;;;;;;;;;;;;;;7.09;100.00;100301.13;5028782;28;19925;-67
2023/11/08 05:10:04;;;;;;;;;;;;;;;7.14;100.00;100310.50;5014915;28;19933;-71
2023/11/08 05:12:31;;;;;;;;;;;;;;;7.16;100.00;100300.78;5012278;28;19925;-73
2023/11/08 05:14:58;;;;;;;;;;;;;;;7.11;100.00;100301.03;5011437;28;20494;-70
2023/11/08 05:17:25;;;;;;;;;;;;;;;7.18;100.00;100301.59;5030502;28;20434;-75
2023/11/08 05:19:53;;;;;;;;;;;;;;;7.19;100.00;100298.03;5031515;28;19937;-74
2023/11/08 05:22:57;;;;;;;;;;;;;;;7.20;100.00;100292.72;5029278;28;19941;-73
2023/11/08 05:25:24;;;;;;;;;;;;;;;7.19;100.00;100298.03;5028522;28;20998;-73
2023/11/08 05:27:53;;;;;;;;;;;;;;;7.19;100.00;100300.66;5029555;28;19964;-76
2023/11/08 05:30:20;;;;;;;;;;;;;;;7.14;100.00;100300.88;5010683;28;20332;-73
2023/11/08 05:32:48;;;;;;;;;;;;;;;7.17;100.00;100303.38;5028554;28;19993;-80
2023/11/08 05:35:15;;;;;;;;;;;;;;;7.16;100.00;100299.06;5025645;28;22251;-73
2023/11/08 05:37:42;;;;;;;;;;;;;;;7.16;100.00;100300.78;5025792;28;19941;-76
2023/11/08 05:44:04;;;;;;;;;;;;;;;7.09;100.00;100298.50;5035559;22;20035;-63
2023/11/08 05:46:31;;;;;;;;;;;;;;;7.16;100.00;100309.53;5025819;28;19961;-63
2023/11/08 05:49:00;;;;;;;;;;;;;;;7.19;100.00;100305.88;5027663;28;19999;-62
2023/11/08 05:51:27;;;;;;;;;;;;;;;7.19;100.00;100314.59;5027938;28;19978;-61
2023/11/08 05:53:55;;;;;;;;;;;;;;;7.22;100.00;100314.44;5027603;28;19940;-62
2023/11/08 05:56:21;;;;;;;;;;;;;;;7.23;100.00;100312.66;5028267;28;20039;-62
2023/11/08 05:58:48;;;;;;;;;;;;;;;7.20;100.00;100321.50;5016142;28;19933;-62
2023/11/08 06:01:16;;;;;;;;;;;;;;;7.26;100.00;100323.84;5022682;28;19948;-61
2023/11/08 06:03:43;;;;;;;;;;;;;;;7.23;100.00;100325.75;5025213;28;20384;-62
2023/11/08 06:06:10;;;;;;;;;;;;;;;7.25;100.00;100321.28;5026249;28;19964;-62
2023/11/08 06:08:37;;;;;;;;;;;;;;;7.23;100.00;100321.38;5021034;28;19935;-61
2023/11/08 06:11:07;;;;;;;;;;;;;;;7.21;100.00;100323.22;5028317;28;20031;-59
2023/11/08 06:13:35;;;;;;;;;;;;;;;7.22;100.00;100324.91;5020302;28;19983;-62
2023/11/08 06:16:02;;;;;;;;;;;;;;;7.27;100.00;100333.38;5030896;28;20042;-60
2023/11/08 06:18:30;;;;;;;;;;;;;;;7.29;100.00;100330.69;5026805;28;20461;-62
2023/11/08 06:20:59;;;;;;;;;;;;;;;7.29;100.00;100343.78;5025217;28;19933;-61
2023/11/08 06:23:26;;;;;;;;;;;;;;;7.28;100.00;100335.06;5027704;28;19975;-60
2023/11/08 06:25:53;;;;;;;;;;;;;;;7.34;100.00;100340.03;5036744;28;19968;-61
2023/11/08 06:28:20;;;;;;;;;;;;;;;7.33;100.00;100340.09;5025794;28;20364;-61
2023/11/08 06:30:47;;;;;;;;;;;;;;;7.37;100.00;100341.63;5025998;28;20029;-63
2023/11/08 06:33:14;;;;;;;;;;;;;;;7.33;100.00;100337.47;5022918;28;19940;-61
2023/11/08 06:35:41;;;;;;;;;;;;;;;7.37;100.00;100339.00;5024070;28;20015;-62
2023/11/08 06:38:09;;;;;;;;;;;;;;;7.34;100.00;100339.19;5028585;28;19941;-62
2023/11/08 06:40:36;;;;;;;;;;;;;;;7.40;100.00;100349.34;5031137;28;19974;-62
2023/11/08 06:43:03;;;;;;;;;;;;;;;7.42;100.00;100342.22;5024392;28;19972;-60
2023/11/08 06:45:30;;;;;;;;;;;;;;;7.49;100.00;100354.09;5036607;22;20405;-79
2023/11/08 06:47:58;;;;;;;;;;;;;;;7.50;100.00;100352.34;5028673;28;19925;-73
2023/11/08 06:50:56;;;;;;;;;;;;;;;7.55;100.00;100351.16;5028508;28;20036;-73
2023/11/08 06:53:23;;;;;;;;;;;;;;;7.49;100.00;100361.13;5025992;28;20365;-73
2023/11/08 06:55:57;;;;;;;;;;;;;;;7.44;100.00;100356.13;5021027;28;20031;-73
2023/11/08 06:58:49;;;;;;;;;;;;;;;7.50;100.00;100366.28;5026892;28;20024;-75
2023/11/08 07:01:16;;;;;;;;;;;;;;;7.53;100.00;100357.44;5028972;28;20047;-72
2023/11/08 07:03:43;;;;;;;;;;;;;;;7.50;100.00;100361.03;5013935;28;20340;-78
2023/11/08 07:06:14;;;;;;;;;;;;;;;7.47;100.00;100361.19;5023381;28;19929;-75
2023/11/08 07:08:41;;;;;;;;;;;;;;;7.56;100.00;100365.97;5022724;28;19926;-71
2023/11/08 07:11:08;;;;;;;;;;;;;;;7.59;100.00;100371.06;5026334;28;20020;-73
2023/11/08 07:13:37;;;;;;;;;;;;;;;7.61;100.00;100374.47;5029668;28;19933;-72
2023/11/08 07:16:04;;;;;;;;;;;;;;;7.61;100.00;100371.84;5028051;28;19932;-71
2023/11/08 07:18:31;;;;;;;;;;;;;;;7.64;100.00;100368.19;5017186;28;19992;-72
2023/11/08 07:20:59;;;;;;;;;;;;;;;7.71;100.00;100360.88;5032131;28;20008;-73
2023/11/08 07:23:26;;;;;;;;;;;;;;;7.63;100.00;100377.00;5036063;28;19971;-70
2023/11/08 07:25:54;;;;;;;;;;;;;;;7.62;100.00;100375.31;5028165;28;19933;-73
2023/11/08 07:28:21;;;;;;;;;;;;;;;7.71;100.00;100369.59;5025141;28;19956;-74
2023/11/08 07:30:48;;;;;;;;;;;;;;;7.75;100.00;100384.22;5031130;28;19968;-73
2023/11/08 07:33:17;;;;;;;;;;;;;;;7.77;100.00;100381.53;5030554;28;19983;-66
2023/11/08 07:35:44;;;;;;;;;;;;;;;7.79;100.00;100388.41;5012589;28;20035;-66
2023/11/08 07:38:36;;;;;;;;;;;;;;;7.88;100.00;100381.84;5033623;28;19972;-73
2023/11/08 07:41:03;;;;;;;;;;;;;;;7.84;100.00;100385.53;5031224;28;19948;-73
2023/11/08 07:43:31;;;;;;;;;;;;;;;7.89;100.00;100382.69;5033253;28;19925;-73
2023/11/08 07:45:58;;;;;;;;;;;;;;;7.93;100.00;100387.69;5037073;28;20351;-73
2023/11/08 07:48:28;;;;;;;;;;;;;;;7.88;100.00;100389.69;5038014;28;20430;-75
2023/11/08 07:50:56;;;;;;;;;;;;;;;7.94;100.00;100386.75;5011803;28;20606;-72
2023/11/08 07:53:23;;;;;;;;;;;;;;;8.06;100.00;100399.22;5028854;28;20020;-76
2023/11/08 07:55:50;;;;;;;;;;;;;;;8.15;100.00;100404.91;5032656;28;19960;-74
2023/11/08 07:58:17;;;;;;;;;;;;;;;8.10;100.00;100395.53;5027475;28;19952;-69
2023/11/08 08:00:47;;;;;;;;;;;;;;;8.04;100.00;100397.59;5029624;28;19972;-75
2023/11/08 08:03:15;;;;;;;;;;;;;;;8.09;100.00;100398.19;5033901;28;19971;-75
2023/11/08 08:05:42;;;;;;;;;;;;;;;8.13;100.00;100399.75;5030512;28;19926;-73
2023/11/08 08:08:10;;;;;;;;;;;;;;;8.13;100.00;100405.81;5031029;28;20015;-75
2023/11/08 08:10:38;;;;;;;;;;;;;;;8.19;100.00;100394.16;5025822;28;20012;-68
2023/11/08 08:13:05;;;;;;;;;;;;;;;8.21;100.00;100401.97;5034387;28;20502;-73
2023/11/08 08:15:32;;;;;;;;;;;;;;;8.29;100.00;100400.63;5030242;28;19929;-70
2023/11/08 08:17:59;;;;;;;;;;;;;;;8.38;100.00;100404.59;5034098;28;20020;-72
2023/11/08 08:20:28;;;;;;;;;;;;;;;8.30;100.00;100396.25;5032931;28;19933;-71
2023/11/08 08:23:10;;;;;;;;;;;;;;;8.40;100.00;100399.25;5029038;28;20379;-79
2023/11/08 08:25:39;;;;;;;;;;;;;;;8.51;100.00;100405.63;5025094;28;19929;-64
2023/11/08 08:28:06;;;;;;;;;;;;;;;8.51;100.00;100408.25;5027177;28;19972;-71
2023/11/08 08:30:33;;;;;;;;;;;;;;;8.34;100.00;100403.88;5025969;28;19976;-70
2023/11/08 08:33:19;;;;;;;;;;;;;;;8.41;100.00;100417.50;5033653;28;20020;-69
2023/11/08 08:35:47;;;;;;;;;;;;;;;8.41;100.00;100411.44;5026669;28;20027;-70
2023/11/08 08:38:14;;;;;;;;;;;;;;;8.46;100.00;100415.50;5031123;28;20024;-80
2023/11/08 08:40:41;;;;;;;;;;;;;;;8.41;100.00;100412.28;5015350;28;20450;-72
2023/11/08 08:43:09;;;;;;;;;;;;;;;8.42;100.00;100418.34;5034491;28;19972;-70
2023/11/08 08:45:36;;;;;;;;;;;;;;;8.30;100.00;100420.69;5029977;28;19941;-67
2023/11/08 08:48:04;;;;;;;;;;;;;;;8.31;100.00;100426.78;5032180;28;20012;-76
2023/11/08 08:50:31;;;;;;;;;;;;;;;8.39;100.00;100423.78;5037520;28;19979;-71
2023/11/08 08:52:58;;;;;;;;;;;;;;;8.43;100.00;100431.41;5028208;28;20339;-73
2023/11/08 08:55:25;;;;;;;;;;;;;;;8.45;100.00;100429.53;5028345;28;20012;-68
2023/11/08 08:57:52;;;;;;;;;;;;;;;8.42;100.00;100432.34;5027463;28;20012;-76
2023/11/08 09:00:20;;;;;;;;;;;;;;;8.58;100.00;100438.44;5028531;28;19925;-72
2023/11/08 09:02:47;;;;;;;;;;;;;;;8.59;100.00;100445.38;5035366;28;19925;-68
2023/11/08 09:05:18;;;;;;;;;;;;;;;8.56;100.00;100429.84;5030759;28;20006;-75
2023/11/08 09:07:47;;;;;;;;;;;;;;;8.52;100.00;100441.41;5028581;28;20040;-78
2023/11/08 09:10:14;;;;;;;;;;;;;;;8.76;100.00;100443.66;5033803;28;19925;-69
2023/11/08 09:12:42;;;;;;;;;;;;;;;8.89;100.00;100439.44;5028112;28;19975;-73
2023/11/08 09:15:10;;;;;;;;;;;;;;;8.85;100.00;100438.75;5025807;28;20021;-70
2023/11/08 09:17:38;;;;;;;;;;;;;;;9.15;100.00;100438.00;5014267;28;19979;-67
2023/11/08 09:20:08;;;;;;;;;;;;;;;9.51;100.00;100436.84;5028456;28;19925;-67
2023/11/08 09:22:35;;;;;;;;;;;;;;;9.95;100.00;100439.50;5025807;28;20020;-73
2023/11/08 09:25:04;;;;;;;;;;;;;;;10.33;100.00;100437.22;5028317;28;19964;-71
2023/11/08 09:27:31;;;;;;;;;;;;;;;10.15;100.00;100440.94;5005337;28;19925;-71
2023/11/08 09:29:58;;;;;;;;;;;;;;;9.95;100.00;100441.25;5027855;28;20379;-72
2023/11/08 09:32:27;;;;;;;;;;;;;;;9.65;100.00;100439.50;5030518;28;19968;-71
2023/11/08 09:34:54;;;;;;;;;;;;;;;9.57;100.00;100446.97;5027564;28;19969;-77
2023/11/08 09:37:21;;;;;;;;;;;;;;;9.65;100.00;100457.91;5008496;28;19936;-77
2023/11/08 09:39:50;;;;;;;;;;;;;;;9.79;100.00;100460.56;5026708;28;19964;-75
2023/11/08 09:42:18;;;;;;;;;;;;;;;9.63;100.00;100451.88;5024177;28;20392;-74
2023/11/08 09:44:48;;;;;;;;;;;;;;;9.46;100.00;100444.97;5022081;28;19925;-75
2023/11/08 09:47:15;;;;;;;;;;;;;;;9.37;100.00;100453.38;5023279;28;19925;-74
2023/11/08 09:49:42;;;;;;;;;;;;;;;9.34;100.00;100451.78;5027160;28;19979;-71
2023/11/08 09:52:11;;;;;;;;;;;;;;;9.41;100.00;100460.16;4996454;28;19929;-70
2023/11/08 09:54:41;;;;;;;;;;;;;;;9.52;100.00;100443.78;5026604;28;19944;-68
2023/11/08 09:57:12;;;;;;;;;;;;;;;9.59;100.00;100445.97;5031536;28;20422;-74
2023/11/08 09:59:39;;;;;;;;;;;;;;;9.43;100.00;100445.16;5027725;28;19925;-70
2023/11/08 10:02:08;;;;;;;;;;;;;;;9.59;100.00;100443.34;5003611;28;19933;-72
2023/11/08 10:04:35;;;;;;;;;;;;;;;9.50;100.00;100445.63;5004679;28;19925;-67
2023/11/08 10:07:12;;;;;;;;;;;;;;;9.58;100.00;100441.63;5001356;28;20040;-74
2023/11/08 10:09:39;;;;;;;;;;;;;;;9.70;100.00;100439.25;5021751;28;20441;-74
2023/11/08 10:12:08;;;;;;;;;;;;;;;9.85;100.00;100435.69;5034580;28;19961;-72
2023/11/08 10:14:36;;;;;;;;;;;;;;;9.95;99.49;100447.41;5026684;28;19971;-68
2023/11/08 10:17:04;;;;;;;;;;;;;;;10.02;98.71;100446.06;5019208;28;20039;-67
2023/11/08 10:19:41;;;;;;;;;;;;;;;9.95;98.34;100444.75;5017747;28;19983;-73
2023/11/08 10:22:22;;;;;;;;;;;;;;;9.92;97.67;100430.94;5040616;28;19994;-71
2023/11/08 10:24:54;;;;;;;;;;;;;;;9.93;97.08;100440.53;5024210;28;20037;-69
2023/11/08 10:27:22;;;;;;;;;;;;;;;9.89;96.75;100434.59;5029682;28;20011;-72
2023/11/08 10:29:50;;;;;;;;;;;;;;;9.97;95.88;100439.41;5010110;28;19925;-74
2023/11/08 10:32:19;;;;;;;;;;;;;;;9.97;95.83;100442.88;5026023;28;19929;-71
2023/11/08 10:34:47;;;;;;;;;;;;;;;10.10;95.89;100441.22;5021185;28;19929;-72
2023/11/08 10:37:41;;;;;;;;;;;;;;;10.20;95.46;100441.50;5017280;28;19937;-76
2023/11/08 10:40:08;;;;;;;;;;;;;;;10.23;93.17;100448.38;5036422;28;20430;-77
2023/11/08 10:42:35;;;;;;;;;;;;;;;10.32;93.68;100450.47;5010931;28;19976;-71
2023/11/08 10:45:08;;;;;;;;;;;;;;;10.30;94.24;100450.56;5014450;28;20056;-69
2023/11/08 10:47:36;;;;;;;;;;;;;;;10.37;93.34;100435.25;5029493;28;19960;-76
2023/11/08 10:50:05;;;;;;;;;;;;;;;10.26;93.32;100442.94;5024759;28;19967;-64
2023/11/08 10:52:33;;;;;;;;;;;;;;;10.20;93.07;100444.13;5014891;28;19944;-71
2023/11/08 10:55:04;;;;;;;;;;;;;;;10.11;93.68;100450.78;5021579;28;19976;-71
2023/11/08 10:57:32;;;;;;;;;;;;;;;10.21;94.23;100437.06;5010217;28;19961;-72
2023/11/08 11:00:03;;;;;;;;;;;;;;;10.07;93.68;100444.00;5014934;28;20019;-68
2023/11/08 11:02:36;;;;;;;;;;;;;;;10.07;94.62;100444.00;5018666;28;20754;-71
2023/11/08 11:05:10;;;;;;;;;;;;;;;10.05;94.92;100445.91;5024990;28;19952;-70
2023/11/08 11:07:39;;;;;;;;;;;;;;;10.07;94.12;100441.38;5021514;28;19933;-70
2023/11/08 11:10:09;;;;;;;;;;;;;;;10.08;94.30;100442.22;5024118;28;19932;-77
2023/11/08 11:12:48;;;;;;;;;;;;;;;10.17;93.76;100439.03;5019693;28;20449;-72
2023/11/08 11:15:17;;;;;;;;;;;;;;;10.18;93.85;100442.53;5030310;28;20168;-71
2023/11/08 11:17:45;;;;;;;;;;;;;;;10.18;93.35;100443.41;5007768;28;19983;-72
2023/11/08 11:20:12;;;;;;;;;;;;;;;10.26;93.75;100445.56;5026021;28;19929;-72
2023/11/08 11:22:40;;;;;;;;;;;;;;;10.29;93.07;100442.75;5023869;28;19969;-75
2023/11/08 11:25:09;;;;;;;;;;;;;;;10.30;93.07;100445.28;5024326;28;19975;-70
2023/11/08 11:27:36;;;;;;;;;;;;;;;10.26;92.48;100446.41;5020249;28;20423;-75
2023/11/08 11:30:13;;;;;;;;;;;;;;;10.19;92.79;100447.72;5004226;28;19987;-66
2023/11/08 11:32:46;;;;;;;;;;;;;;;10.22;92.99;100446.66;5019022;28;20464;-75
2023/11/08 11:35:16;;;;;;;;;;;;;;;10.22;93.41;100459.81;5027649;28;19979;-66
2023/11/08 11:38:03;;;;;;;;;;;;;;;10.20;92.83;100453.81;5008903;28;19925;-73
2023/11/08 11:40:30;;;;;;;;;;;;;;;10.21;93.17;100453.72;5019725;28;19932;-63
2023/11/08 11:42:59;;;;;;;;;;;;;;;10.36;92.78;100450.19;5017723;28;19976;-70
2023/11/08 11:45:32;;;;;;;;;;;;;;;10.37;90.69;100448.41;5023707;28;20623;-70
2023/11/08 11:47:59;;;;;;;;;;;;;;;10.37;91.58;100454.53;5022952;28;19968;-66
2023/11/08 11:50:27;;;;;;;;;;;;;;;10.37;90.50;100461.56;5024713;28;20801;-66
2023/11/08 11:52:54;;;;;;;;;;;;;;;10.41;90.22;100462.25;5013932;28;19944;-70
2023/11/08 11:55:21;;;;;;;;;;;;;;;10.37;90.28;100464.19;5015210;28;20629;-65
2023/11/08 11:57:48;;;;;;;;;;;;;;;10.33;91.17;100457.44;5023542;28;20003;-70
2023/11/08 12:00:16;;;;;;;;;;;;;;;10.32;92.95;100453.97;5004941;28;19983;-70
2023/11/08 12:02:44;;;;;;;;;;;;;;;10.38;93.28;100450.94;5022943;28;19994;-70
2023/11/08 12:05:11;;;;;;;;;;;;;;;10.52;92.05;100447.47;5028106;28;19925;-69
2023/11/08 12:07:38;;;;;;;;;;;;;;;10.49;92.01;100468.72;5027243;28;20460;-72
2023/11/08 12:10:10;;;;;;;;;;;;;;;10.38;92.47;100455.38;5024508;28;20391;-72
2023/11/08 12:12:39;;;;;;;;;;;;;;;10.47;92.78;100459.22;5037689;28;20403;-71
2023/11/08 12:15:18;;;;;;;;;;;;;;;10.55;93.23;100456.97;5011017;28;19933;-74
2023/11/08 12:17:47;;;;;;;;;;;;;;;10.45;93.05;100467.22;5003919;28;19925;-73
2023/11/08 12:20:14;;;;;;;;;;;;;;;10.36;93.60;100452.00;5008860;28;20062;-73
2023/11/08 12:22:48;;;;;;;;;;;;;;;10.55;93.98;100455.19;5028861;28;20399;-68
2023/11/08 12:25:19;;;;;;;;;;;;;;;10.51;93.54;100460.72;5000941;28;20463;-75
2023/11/08 12:27:50;;;;;;;;;;;;;;;10.42;93.52;100458.66;5032148;28;19925;-70
2023/11/08 12:30:26;;;;;;;;;;;;;;;10.40;92.98;100445.56;5034438;28;20012;-76
2023/11/08 12:32:54;;;;;;;;;;;;;;;10.47;94.30;100451.31;5013750;28;19992;-68
2023/11/08 12:35:21;;;;;;;;;;;;;;;10.68;93.64;100457.91;5025231;28;20017;-68
2023/11/08 12:37:48;;;;;;;;;;;;;;;10.99;91.83;100461.25;5025816;28;20016;-66
2023/11/08 12:40:22;;;;;;;;;;;;;;;10.92;90.92;100457.31;5031836;28;19994;-75
2023/11/08 12:42:49;;;;;;;;;;;;;;;11.16;90.55;100459.22;5027726;28;19929;-67
2023/11/08 12:45:36;;;;;;;;;;;;;;;11.07;88.66;100459.81;5025187;28;20030;-78
2023/11/08 12:48:23;;;;;;;;;;;;;;;12.48;84.46;100455.75;5025852;28;19945;-74